createdAt,value
2018-03-09T00:01:10.640Z,4.10
2018-03-09T00:03:37.555Z,4.10
2018-03-09T00:06:04.334Z,4.00
2018-03-09T00:08:32.216Z,4.10
2018-03-09T00:10:59.647Z,4.00
2018-03-09T00:13:27.618Z,4.00
2018-03-09T00:15:56.017Z,4.10
2018-03-09T00:18:23.948Z,4.10
2018-03-09T00:20:50.708Z,4.00
2018-03-09T00:23:17.375Z,4.00
2018-03-09T00:25:44.940Z,4.00
2018-03-09T00:28:11.562Z,4.00
2018-03-09T00:30:38.146Z,4.00
2018-03-09T00:33:05.299Z,4.00
2018-03-09T00:35:31.902Z,4.00
2018-03-09T00:37:58.824Z,3.90
2018-03-09T00:40:26.108Z,4.00
2018-03-09T00:42:53.235Z,3.90
2018-03-09T00:45:19.871Z,3.90
2018-03-09T00:47:47.330Z,3.90
2018-03-09T00:50:13.986Z,4.00
2018-03-09T00:52:42.421Z,3.90
2018-03-09T00:55:09.023Z,3.80
2018-03-09T00:57:35.781Z,3.90
2018-03-09T01:00:02.448Z,3.90
2018-03-09T01:02:29.197Z,3.90
2018-03-09T01:04:55.945Z,3.90
2018-03-09T01:07:22.515Z,3.80
2018-03-09T01:09:49.115Z,3.90
2018-03-09T01:12:16.799Z,3.80
2018-03-09T01:14:43.583Z,3.80
2018-03-09T01:17:10.216Z,3.90
2018-03-09T01:19:36.938Z,3.70
2018-03-09T01:22:03.730Z,3.70
2018-03-09T01:24:30.443Z,3.70
2018-03-09T01:26:57.030Z,3.80
2018-03-09T01:29:23.822Z,3.80
2018-03-09T01:31:50.790Z,3.80
2018-03-09T01:34:17.432Z,3.80
2018-03-09T01:36:44.368Z,3.70
2018-03-09T01:39:10.960Z,3.60
2018-03-09T01:41:37.916Z,3.70
2018-03-09T01:44:04.517Z,3.80
2018-03-09T01:46:32.241Z,3.70
2018-03-09T01:48:58.846Z,3.70
2018-03-09T01:51:25.780Z,3.60
2018-03-09T01:53:52.708Z,3.50
2018-03-09T01:56:19.307Z,3.60
2018-03-09T01:58:45.915Z,3.70
2018-03-09T02:01:12.507Z,3.60
2018-03-09T02:03:40.313Z,3.70
2018-03-09T02:06:07.075Z,3.60
2018-03-09T02:08:33.644Z,3.60
2018-03-09T02:11:00.880Z,3.50
2018-03-09T02:13:28.055Z,3.50
2018-03-09T02:15:54.696Z,3.60
2018-03-09T02:18:21.578Z,3.70
2018-03-09T02:20:48.440Z,3.60
2018-03-09T02:23:15.060Z,3.60
2018-03-09T02:25:42.073Z,3.60
2018-03-09T02:28:08.903Z,3.60
2018-03-09T02:30:35.653Z,3.60
2018-03-09T02:33:02.271Z,3.60
2018-03-09T02:35:29.125Z,3.60
2018-03-09T02:37:56.053Z,3.60
2018-03-09T02:40:22.844Z,3.60
2018-03-09T02:42:49.429Z,3.50
2018-03-09T02:45:16.009Z,3.50
2018-03-09T02:47:42.617Z,3.60
2018-03-09T02:50:09.269Z,3.60
2018-03-09T02:52:36.176Z,3.50
2018-03-09T02:55:02.856Z,3.50
2018-03-09T02:57:29.445Z,3.60
2018-03-09T02:59:56.288Z,3.60
2018-03-09T03:02:22.884Z,3.60
2018-03-09T03:04:49.468Z,3.60
2018-03-09T03:07:16.095Z,3.60
2018-03-09T03:09:42.997Z,3.60
2018-03-09T03:12:09.827Z,3.50
2018-03-09T03:14:36.445Z,3.50
2018-03-09T03:17:03.200Z,3.50
2018-03-09T03:19:29.795Z,3.40
2018-03-09T03:21:56.505Z,3.30
2018-03-09T03:24:23.483Z,3.40
2018-03-09T03:26:50.078Z,3.50
2018-03-09T03:29:17.427Z,3.60
2018-03-09T03:31:44.019Z,3.50
2018-03-09T03:34:10.632Z,3.60
2018-03-09T03:36:38.267Z,3.50
2018-03-09T03:39:04.946Z,3.50
2018-03-09T03:41:31.575Z,3.50
2018-03-09T03:43:58.159Z,3.60
2018-03-09T03:46:24.954Z,3.60
2018-03-09T03:48:51.641Z,3.50
2018-03-09T03:51:18.594Z,3.60
2018-03-09T03:53:45.386Z,3.60
2018-03-09T03:56:12.157Z,3.50
2018-03-09T03:58:38.744Z,3.60
2018-03-09T04:01:05.340Z,3.60
2018-03-09T04:03:32.264Z,3.60
2018-03-09T04:05:58.871Z,3.60
2018-03-09T04:08:25.553Z,3.60
2018-03-09T04:10:52.129Z,3.60
2018-03-09T04:13:18.851Z,3.50
2018-03-09T04:15:45.828Z,3.60
2018-03-09T04:18:12.424Z,3.60
2018-03-09T04:20:39.194Z,3.50
2018-03-09T04:23:05.776Z,3.60
2018-03-09T04:25:32.386Z,3.60
2018-03-09T04:27:59.103Z,3.60
2018-03-09T04:30:26.044Z,3.60
2018-03-09T04:32:52.686Z,3.50
2018-03-09T04:35:19.294Z,3.60
2018-03-09T04:37:46.020Z,3.60
2018-03-09T04:40:12.867Z,3.60
2018-03-09T04:42:40.518Z,3.60
2018-03-09T04:45:07.117Z,3.70
2018-03-09T04:47:33.717Z,3.70
2018-03-09T04:50:00.303Z,3.60
2018-03-09T04:52:27.107Z,3.60
2018-03-09T04:54:53.788Z,3.60
2018-03-09T04:57:20.478Z,3.60
2018-03-09T04:59:47.302Z,3.60
2018-03-09T05:02:14.660Z,3.60
2018-03-09T05:04:41.258Z,3.60
2018-03-09T05:07:08.137Z,3.60
2018-03-09T05:09:34.724Z,3.60
2018-03-09T05:12:01.590Z,3.60
2018-03-09T05:14:28.402Z,3.50
2018-03-09T05:16:54.984Z,3.50
2018-03-09T05:19:21.665Z,3.50
2018-03-09T05:21:48.247Z,3.40
2018-03-09T05:24:15.236Z,3.50
2018-03-09T05:26:42.016Z,3.50
2018-03-09T05:29:08.811Z,3.50
2018-03-09T05:31:35.410Z,3.50
2018-03-09T05:34:02.742Z,3.50
2018-03-09T05:36:29.364Z,3.50
2018-03-09T05:38:56.218Z,3.40
2018-03-09T05:41:22.986Z,3.40
2018-03-09T05:43:49.558Z,3.40
2018-03-09T05:46:16.309Z,3.40
2018-03-09T05:48:43.119Z,3.40
2018-03-09T05:51:10.148Z,3.30
2018-03-09T05:53:37.179Z,3.30
2018-03-09T05:56:04.283Z,3.30
2018-03-09T05:58:30.878Z,3.40
2018-03-09T06:00:57.881Z,3.40
2018-03-09T06:03:24.621Z,3.40
2018-03-09T06:05:51.955Z,3.30
2018-03-09T06:08:18.501Z,3.20
2018-03-09T06:13:55.526Z,3.10
2018-03-09T06:16:22.304Z,3.20
2018-03-09T06:18:48.960Z,3.20
2018-03-09T06:21:15.644Z,3.10
2018-03-09T06:23:42.453Z,3.20
2018-03-09T06:26:09.119Z,3.20
2018-03-09T06:28:35.787Z,3.30
2018-03-09T06:31:02.478Z,3.30
2018-03-09T06:33:29.097Z,3.20
2018-03-09T06:39:05.991Z,3.30
2018-03-09T06:41:32.868Z,3.30
2018-03-09T06:44:00.362Z,3.40
2018-03-09T06:46:27.257Z,3.40
2018-03-09T06:48:54.814Z,3.40
2018-03-09T06:51:21.605Z,3.40
2018-03-09T06:53:48.352Z,3.50
2018-03-09T06:56:15.101Z,3.50
2018-03-09T06:58:42.162Z,3.50
2018-03-09T07:01:08.905Z,3.50
2018-03-09T07:03:35.644Z,3.60
2018-03-09T07:06:02.394Z,3.60
2018-03-09T07:08:29.197Z,3.70
2018-03-09T07:10:56.704Z,3.70
2018-03-09T07:13:23.487Z,3.70
2018-03-09T07:15:50.205Z,3.80
2018-03-09T07:18:16.812Z,3.80
2018-03-09T07:20:43.377Z,3.90
2018-03-09T07:23:09.953Z,3.90
2018-03-09T07:25:36.769Z,4.00
2018-03-09T07:28:04.212Z,4.00
2018-03-09T07:30:30.908Z,4.00
2018-03-09T07:32:57.568Z,4.10
2018-03-09T07:35:24.158Z,4.10
2018-03-09T07:37:50.790Z,4.20
2018-03-09T07:40:17.510Z,4.20
2018-03-09T07:42:44.076Z,4.20
2018-03-09T07:45:10.676Z,4.30
2018-03-09T07:47:37.358Z,4.40
2018-03-09T07:50:03.975Z,4.40
2018-03-09T07:52:30.693Z,4.40
2018-03-09T07:54:57.328Z,4.50
2018-03-09T07:57:23.972Z,4.60
2018-03-09T07:59:50.593Z,4.70
2018-03-09T08:02:17.986Z,4.70
2018-03-09T08:04:44.593Z,4.70
2018-03-09T08:07:11.269Z,4.70
2018-03-09T08:09:37.907Z,4.70
2018-03-09T08:12:04.616Z,4.80
2018-03-09T08:14:31.318Z,4.80
2018-03-09T08:16:57.960Z,4.90
2018-03-09T08:19:24.620Z,5.00
2018-03-09T08:21:51.324Z,5.10
2018-03-09T08:24:18.019Z,5.00
2018-03-09T08:26:45.422Z,5.10
2018-03-09T08:29:12.036Z,5.10
2018-03-09T08:31:38.784Z,5.10
2018-03-09T08:34:06.156Z,5.10
2018-03-09T08:36:32.742Z,5.10
2018-03-09T08:38:59.374Z,5.20
2018-03-09T08:41:25.993Z,5.30
2018-03-09T08:43:52.586Z,5.30
2018-03-09T08:46:19.290Z,5.40
2018-03-09T08:48:45.970Z,5.40
2018-03-09T08:51:13.084Z,5.40
2018-03-09T08:53:39.778Z,5.40
2018-03-09T08:56:06.431Z,5.50
2018-03-09T08:58:33.167Z,5.50
2018-03-09T09:00:59.904Z,5.50
2018-03-09T09:03:26.669Z,5.60
2018-03-09T09:05:53.327Z,5.70
2018-03-09T09:08:20.912Z,5.80
2018-03-09T09:10:47.497Z,5.70
2018-03-09T09:13:14.193Z,5.80
2018-03-09T09:15:40.897Z,5.90
2018-03-09T09:18:07.595Z,6.00
2018-03-09T09:20:34.217Z,6.00
2018-03-09T09:23:00.936Z,6.00
2018-03-09T09:25:27.626Z,6.00
2018-03-09T09:27:54.400Z,6.10
2018-03-09T09:30:21.050Z,6.10
2018-03-09T09:32:47.665Z,6.20
2018-03-09T09:35:14.262Z,6.20
2018-03-09T09:37:40.930Z,6.30
2018-03-09T09:40:07.529Z,6.40
2018-03-09T09:42:34.275Z,6.50
2018-03-09T09:45:00.888Z,6.50
2018-03-09T09:47:27.757Z,6.60
2018-03-09T09:49:54.372Z,6.60
2018-03-09T09:52:20.996Z,6.70
2018-03-09T09:54:47.624Z,6.80
2018-03-09T09:57:16.231Z,6.80
2018-03-09T09:59:42.868Z,6.80
2018-03-09T10:02:09.500Z,6.90
2018-03-09T10:04:36.106Z,6.90
2018-03-09T10:07:02.716Z,7.00
2018-03-09T10:09:29.325Z,7.00
2018-03-09T10:11:56.658Z,7.20
2018-03-09T10:14:23.372Z,7.10
2018-03-09T10:16:49.973Z,7.10
2018-03-09T10:19:16.682Z,7.10
2018-03-09T10:21:44.055Z,7.20
2018-03-09T10:24:10.725Z,7.20
2018-03-09T10:26:37.365Z,7.30
2018-03-09T10:29:04.326Z,7.30
2018-03-09T10:31:30.966Z,7.40
2018-03-09T10:33:57.648Z,7.50
2018-03-09T10:36:24.356Z,7.60
2018-03-09T10:38:50.963Z,7.60
2018-03-09T10:41:17.601Z,7.80
2018-03-09T10:43:44.238Z,8.00
2018-03-09T10:46:16.203Z,8.10
2018-03-09T10:48:42.815Z,8.20
2018-03-09T10:51:09.497Z,8.20
2018-03-09T10:53:36.773Z,8.20
2018-03-09T10:56:03.389Z,8.20
2018-03-09T10:58:31.492Z,8.20
2018-03-09T11:01:02.755Z,8.20
2018-03-09T11:03:29.565Z,8.20
2018-03-09T11:05:57.848Z,8.20
2018-03-09T11:08:51.914Z,8.20
2018-03-09T11:11:18.625Z,8.30
2018-03-09T11:13:47.563Z,8.50
2018-03-09T11:16:15.659Z,8.50
2018-03-09T11:18:50.507Z,8.70
2018-03-09T11:21:17.085Z,8.70
2018-03-09T11:24:03.860Z,8.70
2018-03-09T11:26:30.533Z,8.90
2018-03-09T11:28:57.244Z,8.80
2018-03-09T11:34:35.062Z,9.00
2018-03-09T11:37:05.281Z,9.20
2018-03-09T11:39:32.035Z,9.10
2018-03-09T11:41:58.659Z,9.10
2018-03-09T11:44:25.781Z,9.20
2018-03-09T11:46:52.444Z,9.30
2018-03-09T11:49:19.076Z,9.40
2018-03-09T11:51:47.800Z,9.60
2018-03-09T11:54:14.498Z,9.70
2018-03-09T11:56:41.090Z,9.80
2018-03-09T11:59:10.243Z,9.50
2018-03-09T12:01:37.753Z,9.40
2018-03-09T12:04:04.412Z,9.50
2018-03-09T12:06:31.173Z,9.60
2018-03-09T12:08:57.787Z,9.70
2018-03-09T12:14:34.670Z,9.90
2018-03-09T12:17:01.284Z,9.70
2018-03-09T12:19:28.780Z,9.70
2018-03-09T12:21:57.593Z,9.70
2018-03-09T12:24:24.331Z,9.80
2018-03-09T12:30:00.878Z,9.70
2018-03-09T12:32:27.527Z,9.90
2018-03-09T12:34:54.127Z,10.00
2018-03-09T12:37:20.763Z,10.10
2018-03-09T12:39:47.392Z,10.10
2018-03-09T12:42:14.012Z,10.10
2018-03-09T12:44:41.035Z,10.20
2018-03-09T12:47:07.705Z,10.40
2018-03-09T12:49:34.487Z,10.30
2018-03-09T12:52:01.276Z,10.00
2018-03-09T12:54:27.980Z,10.10
2018-03-09T12:56:54.749Z,10.30
2018-03-09T12:59:22.292Z,10.20
2018-03-09T13:01:50.344Z,10.20
2018-03-09T13:04:17.835Z,10.30
2018-03-09T13:06:45.288Z,10.40
2018-03-09T13:09:18.070Z,10.40
2018-03-09T13:14:26.716Z,10.70
2018-03-09T13:16:56.029Z,10.50
2018-03-09T13:19:23.324Z,10.60
2018-03-09T13:31:05.254Z,11.10
2018-03-09T13:33:33.926Z,11.10
2018-03-09T13:36:01.404Z,11.40
2018-03-09T13:38:28.898Z,11.30
2018-03-09T13:40:59.219Z,11.10
2018-03-09T13:43:29.918Z,11.10
2018-03-09T13:46:03.865Z,11.20
2018-03-09T13:48:31.296Z,11.20
2018-03-09T13:50:58.640Z,11.30
2018-03-09T13:53:50.168Z,11.30
2018-03-09T13:56:18.608Z,11.30
2018-03-09T13:58:47.613Z,11.40
2018-03-09T14:01:15.261Z,11.30
2018-03-09T14:03:42.825Z,11.20
2018-03-09T14:06:11.779Z,11.10
2018-03-09T14:08:39.281Z,10.90
2018-03-09T14:14:16.910Z,11.10
2018-03-09T14:16:45.033Z,10.90
2018-03-09T14:19:12.787Z,11.00
2018-03-09T14:21:40.086Z,11.00
2018-03-09T14:24:06.685Z,11.00
2018-03-09T14:26:33.293Z,11.00
2018-03-09T14:29:09.730Z,11.00
2018-03-09T14:31:36.395Z,11.10
2018-03-09T14:34:30.131Z,11.00
2018-03-09T14:36:56.937Z,11.00
2018-03-09T14:39:23.531Z,11.00
2018-03-09T14:41:50.132Z,11.00
2018-03-09T14:44:16.776Z,11.10
2018-03-09T14:46:43.435Z,11.20
2018-03-09T14:49:10.026Z,11.30
2018-03-09T14:51:39.874Z,11.20
2018-03-09T14:54:06.589Z,11.30
2018-03-09T14:56:36.003Z,11.40
2018-03-09T14:59:04.979Z,11.20
2018-03-09T15:01:33.294Z,11.10
2018-03-09T15:04:01.210Z,10.90
2018-03-09T15:06:29.478Z,11.10
2018-03-09T15:08:57.244Z,11.10
2018-03-09T15:11:23.851Z,11.00
2018-03-09T15:13:50.461Z,10.90
2018-03-09T15:16:18.435Z,10.90
2018-03-09T15:18:46.771Z,11.00
2018-03-09T15:21:13.810Z,10.80
2018-03-09T15:23:40.381Z,10.70
2018-03-09T15:26:08.648Z,10.60
2018-03-09T15:28:36.889Z,10.50
2018-03-09T15:31:05.591Z,10.60
2018-03-09T15:33:34.279Z,10.60
2018-03-09T15:36:03.901Z,10.50
2018-03-09T15:38:30.561Z,10.40
2018-03-09T15:43:36.475Z,10.40
2018-03-09T15:46:05.134Z,10.30
2018-03-09T15:51:45.982Z,10.30
2018-03-09T15:54:13.334Z,10.00
2018-03-09T15:56:39.913Z,10.00
2018-03-09T15:59:09.342Z,10.00
2018-03-09T16:01:43.239Z,10.10
2018-03-09T16:04:10.256Z,10.10
2018-03-09T16:06:36.924Z,10.00
2018-03-09T16:09:04.702Z,10.00
2018-03-09T16:11:31.301Z,9.90
2018-03-09T16:16:33.562Z,9.80
2018-03-09T16:19:00.161Z,9.80
2018-03-09T16:21:26.832Z,9.80
2018-03-09T16:23:53.474Z,9.70
2018-03-09T16:26:30.369Z,9.70
2018-03-09T16:28:57.119Z,9.60
2018-03-09T16:31:23.720Z,9.60
2018-03-09T16:33:50.915Z,9.60
2018-03-09T16:36:17.582Z,9.60
2018-03-09T16:38:44.337Z,9.60
2018-03-09T16:41:11.003Z,9.60
2018-03-09T16:43:37.660Z,9.50
2018-03-09T16:46:04.291Z,9.50
2018-03-09T16:48:30.887Z,9.50
2018-03-09T16:50:57.510Z,9.40
2018-03-09T16:53:24.741Z,9.40
2018-03-09T16:55:52.015Z,9.40
2018-03-09T16:58:19.392Z,9.30
2018-03-09T17:00:45.936Z,9.30
2018-03-09T17:03:12.495Z,9.30
2018-03-09T17:05:39.093Z,9.30
2018-03-09T17:08:05.646Z,9.30
2018-03-09T17:10:32.232Z,9.30
2018-03-09T17:12:59.395Z,9.20
2018-03-09T17:15:25.957Z,9.20
2018-03-09T17:17:53.252Z,9.10
2018-03-09T17:20:19.895Z,9.00
2018-03-09T17:22:46.486Z,9.10
2018-03-09T17:25:14.125Z,9.00
2018-03-09T17:27:40.713Z,9.00
2018-03-09T17:30:08.027Z,8.80
2018-03-09T17:32:34.739Z,8.80
2018-03-09T17:35:01.296Z,8.80
2018-03-09T17:37:36.249Z,8.80
2018-03-09T17:40:02.878Z,8.80
2018-03-09T17:42:29.542Z,8.70
2018-03-09T17:44:56.148Z,8.60
2018-03-09T17:47:24.228Z,8.60
2018-03-09T17:49:50.909Z,8.60
2018-03-09T17:52:18.223Z,8.40
2018-03-09T17:54:44.872Z,8.50
2018-03-09T17:57:11.895Z,8.40
2018-03-09T17:59:38.466Z,8.30
2018-03-09T18:02:05.140Z,8.10
2018-03-09T18:04:31.743Z,8.00
2018-03-09T18:06:58.383Z,8.10
2018-03-09T18:09:25.780Z,8.10
2018-03-09T18:11:53.906Z,8.00
2018-03-09T18:14:22.284Z,8.20
2018-03-09T18:16:52.905Z,8.20
2018-03-09T18:19:19.494Z,8.20
2018-03-09T18:21:47.453Z,8.20
2018-03-09T18:24:14.082Z,8.20
2018-03-09T18:26:48.535Z,8.20
2018-03-09T18:29:15.285Z,8.10
2018-03-09T18:31:41.921Z,8.20
2018-03-09T18:34:08.541Z,8.20
2018-03-09T18:36:43.190Z,8.10
2018-03-09T18:39:13.932Z,8.00
2018-03-09T18:41:40.912Z,8.00
2018-03-09T18:44:08.265Z,8.00
2018-03-09T18:46:35.683Z,8.00
2018-03-09T18:49:02.905Z,7.90
2018-03-09T18:51:29.572Z,7.90
2018-03-09T18:53:56.177Z,7.80
2018-03-09T18:56:22.812Z,7.90
2018-03-09T18:58:50.052Z,7.90
2018-03-09T19:01:16.735Z,8.00
2018-03-09T19:03:43.579Z,8.00
2018-03-09T19:06:10.452Z,7.90
2018-03-09T19:08:37.577Z,7.90
2018-03-09T19:11:04.247Z,7.90
2018-03-09T19:13:30.861Z,7.70
2018-03-09T19:15:58.295Z,7.80
2018-03-09T19:18:24.900Z,7.70
2018-03-09T19:20:51.530Z,7.70
2018-03-09T19:23:18.152Z,7.70
2018-03-09T19:25:45.636Z,7.70
2018-03-09T19:28:12.930Z,7.60
2018-03-09T19:30:40.277Z,7.70
2018-03-09T19:33:06.947Z,7.70
2018-03-09T19:35:33.826Z,7.60
2018-03-09T19:38:01.190Z,7.80
2018-03-09T19:40:29.180Z,7.70
2018-03-09T19:43:02.169Z,7.70
2018-03-09T19:45:29.749Z,7.70
2018-03-09T19:48:00.223Z,7.60
2018-03-09T19:50:28.672Z,7.70
2018-03-09T19:52:56.361Z,7.70
2018-03-09T19:55:23.839Z,7.80
2018-03-09T19:57:50.852Z,7.70
2018-03-09T20:00:18.681Z,7.70
2018-03-09T20:02:45.857Z,7.70
2018-03-09T20:05:13.894Z,7.80
2018-03-09T20:07:42.214Z,7.80
2018-03-09T20:10:17.475Z,7.70
2018-03-09T20:12:45.351Z,7.70
2018-03-09T20:15:12.360Z,7.80
2018-03-09T20:17:40.663Z,7.80
2018-03-09T20:20:08.647Z,7.80
2018-03-09T20:22:36.879Z,7.70
2018-03-09T20:25:03.658Z,7.70
2018-03-09T20:27:32.293Z,7.60
2018-03-09T20:29:59.684Z,7.70
2018-03-09T20:32:44.625Z,7.70
2018-03-09T20:35:31.952Z,7.70
2018-03-09T20:38:06.795Z,7.70
2018-03-09T20:40:35.301Z,7.80
2018-03-09T20:43:03.650Z,7.70
2018-03-09T20:48:39.074Z,7.60
2018-03-09T20:51:09.372Z,7.70
2018-03-09T20:53:37.559Z,7.70
2018-03-09T20:56:05.540Z,7.70
2018-03-09T20:58:33.967Z,7.80
2018-03-09T21:01:06.322Z,7.70
2018-03-09T21:03:52.467Z,7.70
2018-03-09T21:06:19.613Z,7.70
2018-03-09T21:08:48.347Z,7.70
2018-03-09T21:11:17.342Z,7.80
2018-03-09T21:13:58.289Z,7.70
2018-03-09T21:16:40.368Z,7.70
2018-03-09T21:19:08.451Z,7.70
2018-03-09T21:21:37.987Z,7.70
2018-03-09T21:24:06.398Z,7.70
2018-03-09T21:26:49.422Z,7.80
2018-03-09T21:29:16.991Z,7.70
2018-03-09T21:31:43.920Z,7.80
2018-03-09T21:34:19.249Z,7.80
2018-03-09T21:36:45.947Z,7.70
2018-03-09T21:39:20.974Z,7.70
2018-03-09T21:41:47.586Z,7.70
2018-03-09T21:44:16.261Z,7.70
2018-03-09T21:46:42.905Z,7.60
2018-03-09T21:49:10.716Z,7.60
2018-03-09T21:51:37.800Z,7.60
2018-03-09T21:54:05.508Z,7.60
2018-03-09T21:56:32.241Z,7.60
2018-03-09T21:58:58.794Z,7.60
2018-03-09T22:01:25.495Z,7.60
2018-03-09T22:03:52.389Z,7.50
2018-03-09T22:06:19.072Z,7.50
2018-03-09T22:08:46.390Z,7.70
2018-03-09T22:11:12.943Z,7.70
2018-03-09T22:13:39.572Z,7.70
2018-03-09T22:16:28.492Z,7.70
2018-03-09T22:18:55.863Z,7.80
2018-03-09T22:21:22.456Z,7.80
2018-03-09T22:23:49.462Z,7.80
2018-03-09T22:26:16.036Z,7.80
2018-03-09T22:28:43.341Z,7.80
2018-03-09T22:31:10.741Z,7.80
2018-03-09T22:33:37.326Z,7.90
2018-03-09T22:36:04.000Z,7.90
2018-03-09T22:38:30.571Z,7.90
2018-03-09T22:40:57.153Z,7.90
2018-03-09T22:43:23.794Z,7.80
2018-03-09T22:45:50.366Z,7.80
2018-03-09T22:48:16.896Z,7.80
2018-03-09T22:50:43.467Z,7.80
2018-03-09T22:53:10.036Z,7.80
2018-03-09T22:55:36.889Z,7.80
2018-03-09T22:58:03.722Z,7.80
2018-03-09T23:00:30.574Z,7.80
2018-03-09T23:02:57.986Z,7.80
2018-03-09T23:05:25.746Z,7.80
2018-03-09T23:07:53.904Z,7.80
2018-03-09T23:10:20.594Z,7.80
2018-03-09T23:12:47.129Z,7.80
2018-03-09T23:15:14.141Z,7.90
2018-03-09T23:17:40.723Z,7.80
2018-03-09T23:20:08.011Z,7.90
2018-03-09T23:22:34.624Z,7.90
2018-03-09T23:25:01.202Z,7.90
2018-03-09T23:27:27.797Z,7.80
2018-03-09T23:29:54.411Z,7.90
2018-03-09T23:32:20.963Z,7.80
2018-03-09T23:34:47.623Z,7.80
2018-03-09T23:37:14.335Z,7.80
2018-03-09T23:39:41.786Z,7.80
2018-03-09T23:42:08.369Z,7.80
2018-03-09T23:44:34.922Z,7.80
2018-03-09T23:47:01.706Z,7.80
2018-03-09T23:49:28.326Z,7.80
2018-03-09T23:51:54.962Z,7.90
2018-03-09T23:54:22.280Z,7.90
2018-03-09T23:56:48.841Z,7.90
2018-03-09T23:59:15.516Z,8.00
